Time;durP1;ratioP1;P1;durP2;ratioP2;P2;SDS_P1;SDS_P2;PMS_P1;PMS_P2;Temp;Humidity;BMP_temperature;BMP_pressure;BME280_temperature;BME280_humidity;BME280_pressure;Samples;Min_cycle;Max_cycle;Signal;HPM_P1;HPM_P2
2024/02/03 00:01:28;;;;;;;12.80;6.27;;;;;;;8.11;100.00;101276.47;5042555;28;20302;-74
2024/02/03 00:03:55;;;;;;;12.10;6.57;;;;;;;8.12;100.00;101285.94;5026435;28;20250;-74
2024/02/03 00:06:21;;;;;;;10.20;5.63;;;;;;;8.13;100.00;101284.84;5027055;28;20223;-73
2024/02/03 00:08:47;;;;;;;9.30;5.20;;;;;;;8.16;100.00;101289.53;5022051;28;20210;-74
2024/02/03 00:11:14;;;;;;;8.73;6.03;;;;;;;8.18;100.00;101289.25;5026048;28;20294;-73
2024/02/03 00:13:42;;;;;;;10.60;5.77;;;;;;;8.16;100.00;101275.59;5026192;28;20218;-73
2024/02/03 00:16:08;;;;;;;9.17;5.67;;;;;;;8.15;100.00;101271.41;5025531;28;20614;-73
2024/02/03 00:18:35;;;;;;;9.67;5.63;;;;;;;8.18;100.00;101284.00;5037721;28;20195;-73
2024/02/03 00:21:02;;;;;;;9.97;5.63;;;;;;;8.15;100.00;101289.81;5019974;28;20196;-74
2024/02/03 00:23:28;;;;;;;8.43;5.40;;;;;;;8.15;100.00;101295.88;5023287;28;20205;-74
2024/02/03 00:25:55;;;;;;;8.07;4.57;;;;;;;8.13;100.00;101284.09;5013310;28;20236;-74
2024/02/03 00:28:21;;;;;;;8.73;5.47;;;;;;;8.12;100.00;101296.44;5011052;28;20231;-75
2024/02/03 00:30:49;;;;;;;8.10;5.40;;;;;;;8.10;100.00;101288.09;5008593;28;20273;-75
2024/02/03 00:33:15;;;;;;;9.63;5.10;;;;;;;8.09;100.00;101288.38;5010970;28;20203;-75
2024/02/03 00:35:41;;;;;;;9.00;5.37;;;;;;;8.05;100.00;101290.81;5010775;28;20220;-75
2024/02/03 00:38:08;;;;;;;10.10;5.63;;;;;;;8.04;100.00;101296.34;5009793;28;20680;-75
2024/02/03 00:40:34;;;;;;;9.47;5.10;;;;;;;8.01;100.00;101299.53;5003760;28;20210;-73
2024/02/03 00:43:01;;;;;;;9.30;5.93;;;;;;;7.99;100.00;101302.50;5023134;28;20208;-75
2024/02/03 00:45:27;;;;;;;11.10;6.20;;;;;;;7.97;100.00;101309.09;5030950;28;20203;-74
2024/02/03 00:47:55;;;;;;;9.63;5.43;;;;;;;7.96;100.00;101302.25;5006830;28;20409;-74
2024/02/03 00:50:21;;;;;;;12.83;5.67;;;;;;;7.93;100.00;101306.25;5006090;28;20637;-75
2024/02/03 00:52:47;;;;;;;7.50;4.77;;;;;;;7.92;100.00;101309.97;5008607;28;20199;-75
2024/02/03 00:55:14;;;;;;;9.53;5.80;;;;;;;7.89;100.00;101313.19;5004183;28;20704;-75
2024/02/03 00:57:40;;;;;;;9.07;5.27;;;;;;;7.87;100.00;101307.41;5006133;28;20289;-73
2024/02/03 01:00:09;;;;;;;8.77;5.43;;;;;;;7.85;100.00;101312.19;5003842;28;20194;-74
2024/02/03 01:02:35;;;;;;;9.87;5.13;;;;;;;7.84;100.00;101304.59;4999782;28;20201;-75
2024/02/03 01:05:04;;;;;;;8.77;5.40;;;;;;;7.83;100.00;101303.81;5005366;28;20546;-75
2024/02/03 01:07:31;;;;;;;7.90;4.80;;;;;;;7.85;100.00;101303.50;5001894;28;20222;-74
2024/02/03 01:09:57;;;;;;;10.20;5.57;;;;;;;7.84;100.00;101305.38;5002705;28;20236;-74
2024/02/03 01:12:23;;;;;;;7.67;4.67;;;;;;;7.83;100.00;101300.41;5004196;28;20197;-74
2024/02/03 01:14:50;;;;;;;11.67;5.93;;;;;;;7.83;100.00;101308.28;5002573;28;20206;-75
2024/02/03 01:17:16;;;;;;;10.47;5.10;;;;;;;7.83;100.00;101311.69;5003275;28;20225;-75
2024/02/03 01:19:43;;;;;;;5.93;4.50;;;;;;;7.83;100.00;101310.94;5003423;28;20194;-75
2024/02/03 01:22:10;;;;;;;9.07;5.30;;;;;;;7.85;100.00;101309.56;5004741;28;20237;-74
2024/02/03 01:24:37;;;;;;;11.87;5.30;;;;;;;7.84;100.00;101305.38;5002035;28;20881;-75
2024/02/03 01:27:05;;;;;;;9.37;5.00;;;;;;;7.84;100.00;101294.88;5004043;28;20226;-73
2024/02/03 01:29:31;;;;;;;12.70;4.43;;;;;;;7.86;100.00;101303.22;5004246;28;20225;-74
2024/02/03 01:31:57;;;;;;;7.03;4.43;;;;;;;7.87;100.00;101296.13;5005701;28;20193;-75
2024/02/03 01:34:24;;;;;;;7.23;5.27;;;;;;;7.87;100.00;101291.63;5004138;28;20222;-72
2024/02/03 01:36:50;;;;;;;8.03;4.90;;;;;;;7.91;100.00;101291.84;5005964;28;20305;-72
2024/02/03 01:39:18;;;;;;;8.73;4.80;;;;;;;7.92;100.00;101294.19;5019522;28;20212;-73
2024/02/03 01:41:44;;;;;;;8.10;4.80;;;;;;;7.96;100.00;101286.50;5003289;28;20204;-73
2024/02/03 01:44:10;;;;;;;7.30;4.67;;;;;;;7.98;100.00;101289.63;5004848;28;20209;-73
2024/02/03 01:46:37;;;;;;;9.30;4.77;;;;;;;8.01;100.00;101283.78;5007335;28;20254;-72
2024/02/03 01:49:04;;;;;;;8.73;4.97;;;;;;;8.04;100.00;101283.19;5003998;28;20230;-73
2024/02/03 01:51:33;;;;;;;5.70;3.93;;;;;;;8.07;100.00;101280.75;5004222;28;20207;-72
2024/02/03 01:54:00;;;;;;;7.27;4.60;;;;;;;8.11;100.00;101280.94;5005634;28;20198;-73
2024/02/03 01:56:28;;;;;;;6.63;3.83;;;;;;;8.14;100.00;101277.75;5003870;28;20276;-72
2024/02/03 01:58:54;;;;;;;7.00;4.70;;;;;;;8.20;100.00;101279.25;5018619;28;20625;-72
2024/02/03 02:01:21;;;;;;;5.83;4.07;;;;;;;8.20;100.00;101274.78;5003767;28;20561;-73
2024/02/03 02:03:47;;;;;;;5.57;3.80;;;;;;;8.24;100.00;101278.34;4997520;28;20216;-72
2024/02/03 02:06:14;;;;;;;6.33;4.47;;;;;;;8.28;100.00;101292.50;5004471;28;20230;-72
2024/02/03 02:08:39;;;;;;;5.20;3.57;;;;;;;8.32;100.00;101277.69;5003164;28;20563;-71
2024/02/03 02:11:06;;;;;;;6.67;4.77;;;;;;;8.36;100.00;101278.66;5001420;28;20276;-72
2024/02/03 02:13:34;;;;;;;6.87;4.37;;;;;;;8.43;100.00;101271.16;5001113;28;20246;-73
2024/02/03 02:16:01;;;;;;;9.50;3.90;;;;;;;8.44;100.00;101272.69;5002423;28;20233;-72
2024/02/03 02:18:27;;;;;;;6.70;4.47;;;;;;;8.46;100.00;101273.19;5001145;28;20197;-73
2024/02/03 02:20:55;;;;;;;7.73;4.07;;;;;;;8.50;100.00;101281.28;5007099;28;20209;-73
2024/02/03 02:23:21;;;;;;;6.67;4.30;;;;;;;8.54;100.00;101288.28;5002803;28;20199;-71
2024/02/03 02:25:48;;;;;;;6.33;4.20;;;;;;;8.57;100.00;101287.72;5004141;28;20686;-72
2024/02/03 02:28:14;;;;;;;6.00;4.00;;;;;;;8.60;100.00;101287.09;5005703;28;20564;-75
2024/02/03 02:30:41;;;;;;;6.17;4.07;;;;;;;8.62;100.00;101284.19;5006575;28;20198;-73
2024/02/03 02:33:09;;;;;;;5.83;4.13;;;;;;;8.65;100.00;101281.75;5003970;28;20199;-73
2024/02/03 02:35:35;;;;;;;6.50;4.10;;;;;;;8.67;100.00;101286.72;5007988;28;21185;-73
2024/02/03 02:38:19;;;;;;;8.43;4.90;;;;;;;8.69;100.00;101289.84;5006870;28;20199;-73
2024/02/03 02:40:45;;;;;;;6.10;3.73;;;;;;;8.71;100.00;101290.31;5019174;28;20246;-71
2024/02/03 02:43:11;;;;;;;7.10;4.27;;;;;;;8.73;100.00;101278.41;5007875;28;20214;-73
2024/02/03 02:45:38;;;;;;;7.17;4.37;;;;;;;8.76;100.00;101280.44;5007990;28;20642;-73
2024/02/03 02:48:05;;;;;;;5.50;4.13;;;;;;;8.78;100.00;101282.78;5004649;28;20439;-72
2024/02/03 02:50:31;;;;;;;7.60;4.90;;;;;;;8.80;100.00;101278.03;5003536;28;20214;-73
2024/02/03 02:52:57;;;;;;;5.60;4.20;;;;;;;8.83;100.00;101266.88;5006788;28;20208;-72
2024/02/03 02:55:25;;;;;;;6.53;4.60;;;;;;;8.83;100.00;101267.66;5005443;28;20235;-73
2024/02/03 02:57:51;;;;;;;6.10;4.40;;;;;;;8.86;100.00;101266.31;5004992;28;20693;-72
2024/02/03 03:00:18;;;;;;;7.03;5.40;;;;;;;8.86;100.00;101266.31;5007599;28;20751;-71
2024/02/03 03:02:45;;;;;;;7.50;4.90;;;;;;;8.90;100.00;101268.03;5005334;28;20204;-72
2024/02/03 03:05:12;;;;;;;7.50;5.20;;;;;;;8.89;100.00;101270.97;5006791;28;20207;-73
2024/02/03 03:07:39;;;;;;;6.43;4.63;;;;;;;8.90;100.00;101268.03;5007901;28;20229;-73
2024/02/03 03:10:06;;;;;;;10.23;5.60;;;;;;;8.93;100.00;101262.19;5007530;28;20599;-72
2024/02/03 03:12:34;;;;;;;7.67;4.90;;;;;;;8.95;100.00;101257.38;5007558;28;20204;-73
2024/02/03 03:15:00;;;;;;;6.40;4.67;;;;;;;8.97;100.00;101265.78;5010268;28;20843;-73
2024/02/03 03:17:27;;;;;;;7.73;4.93;;;;;;;8.99;100.00;101261.00;5005577;28;20224;-73
2024/02/03 03:19:53;;;;;;;7.93;5.23;;;;;;;9.01;100.00;101263.34;5007345;28;20791;-73
2024/02/03 03:22:19;;;;;;;8.87;5.70;;;;;;;9.05;100.00;101259.78;5003707;28;20595;-73
2024/02/03 03:24:46;;;;;;;8.47;5.70;;;;;;;9.07;100.00;101267.41;5001805;28;20199;-72
2024/02/03 03:27:12;;;;;;;6.80;5.00;;;;;;;9.09;100.00;101257.34;5007959;28;20596;-73
2024/02/03 03:29:40;;;;;;;8.50;5.30;;;;;;;9.12;100.00;101267.28;5004352;28;20211;-73
2024/02/03 03:32:07;;;;;;;7.83;5.70;;;;;;;9.13;100.00;101267.00;5004449;28;20215;-73
2024/02/03 03:34:33;;;;;;;8.10;5.60;;;;;;;9.15;100.00;101259.56;5001754;28;20204;-72
2024/02/03 03:37:00;;;;;;;8.37;6.03;;;;;;;9.18;100.00;101242.38;5006561;28;20231;-73
2024/02/03 03:39:26;;;;;;;7.53;5.53;;;;;;;9.20;100.00;101240.22;5004136;28;20192;-71
2024/02/03 03:41:54;;;;;;;8.83;6.00;;;;;;;9.22;100.00;101241.47;5000792;28;20192;-72
2024/02/03 03:44:20;;;;;;;7.70;5.67;;;;;;;9.24;100.00;101257.78;5004566;28;20196;-73
2024/02/03 03:46:48;;;;;;;9.27;6.77;;;;;;;9.28;100.00;101265.84;5003952;28;20220;-72
2024/02/03 03:49:14;;;;;;;9.40;6.70;;;;;;;9.30;100.00;101263.69;5004445;28;20807;-72
2024/02/03 03:51:41;;;;;;;9.23;6.43;;;;;;;9.31;100.00;101266.03;5004998;28;20207;-73
2024/02/03 03:54:07;;;;;;;8.73;6.00;;;;;;;9.33;100.00;101263.91;5007224;28;20223;-73
2024/02/03 03:56:33;;;;;;;8.40;6.13;;;;;;;9.35;100.00;101264.34;5001087;28;20252;-73
2024/02/03 03:59:01;;;;;;;8.20;6.20;;;;;;;9.34;100.00;101260.16;5001423;28;20671;-73
2024/02/03 04:01:27;;;;;;;11.17;6.97;;;;;;;9.36;100.00;101251.94;5005859;28;20207;-72
2024/02/03 04:03:55;;;;;;;9.00;6.87;;;;;;;9.35;100.00;101253.81;5004997;28;20212;-73
2024/02/03 04:06:22;;;;;;;9.20;7.10;;;;;;;9.36;100.00;101246.66;5005712;28;20231;-73
2024/02/03 04:08:48;;;;;;;10.03;7.00;;;;;;;9.37;100.00;101243.75;4997645;28;20217;-72
2024/02/03 04:11:14;;;;;;;9.70;6.60;;;;;;;9.37;100.00;101243.75;5005747;28;20227;-73
2024/02/03 04:13:41;;;;;;;10.00;7.07;;;;;;;9.39;100.00;101265.31;5003590;28;20284;-72
2024/02/03 04:16:07;;;;;;;9.90;7.33;;;;;;;9.41;100.00;101233.38;5004731;28;20241;-72
2024/02/03 04:18:34;;;;;;;9.53;6.77;;;;;;;9.41;100.00;101230.72;5003254;28;20209;-71
2024/02/03 04:21:01;;;;;;;10.03;6.77;;;;;;;9.44;100.00;101246.75;5004599;28;20205;-73
2024/02/03 04:23:28;;;;;;;11.23;6.90;;;;;;;9.44;100.00;101230.13;5002858;28;20719;-73
2024/02/03 04:25:54;;;;;;;9.07;6.73;;;;;;;9.46;100.00;101233.25;5004658;28;20595;-73
2024/02/03 04:28:20;;;;;;;9.00;6.57;;;;;;;9.47;100.00;101229.56;5005551;28;20219;-73
2024/02/03 04:30:47;;;;;;;9.07;6.43;;;;;;;9.49;100.00;101236.06;5004772;28;20295;-73
2024/02/03 04:33:13;;;;;;;8.47;6.00;;;;;;;9.50;100.00;101235.00;5002881;28;20210;-73
2024/02/03 04:35:40;;;;;;;10.23;7.20;;;;;;;9.50;100.00;101228.94;5017554;28;20595;-73
2024/02/03 04:38:07;;;;;;;9.93;6.27;;;;;;;9.53;100.00;101233.63;5002321;28;20205;-72
2024/02/03 04:40:34;;;;;;;9.27;6.43;;;;;;;9.53;100.00;101229.09;5003544;28;20215;-72
2024/02/03 04:43:00;;;;;;;9.23;6.60;;;;;;;9.54;100.00;101221.97;5004110;28;20638;-73
2024/02/03 04:45:26;;;;;;;9.33;6.40;;;;;;;9.56;100.00;101233.00;5004039;28;20197;-72
2024/02/03 04:47:53;;;;;;;8.50;6.10;;;;;;;9.57;100.00;101224.78;5000724;28;20197;-73
2024/02/03 04:50:19;;;;;;;8.83;6.00;;;;;;;9.60;100.00;101226.03;5000654;28;20591;-73
2024/02/03 04:52:45;;;;;;;11.17;7.00;;;;;;;9.62;100.00;101229.94;5016805;28;20197;-74
2024/02/03 04:55:13;;;;;;;10.00;7.10;;;;;;;9.63;100.00;101217.53;5022774;28;20200;-73
2024/02/03 04:57:39;;;;;;;8.50;5.97;;;;;;;9.63;100.00;101215.66;5003798;28;20231;-73
2024/02/03 05:00:08;;;;;;;9.50;6.53;;;;;;;9.68;100.00;101234.00;5005895;28;20587;-72
2024/02/03 05:02:34;;;;;;;8.53;6.40;;;;;;;9.71;100.00;101240.53;5005189;28;20676;-73
2024/02/03 05:05:01;;;;;;;9.93;7.37;;;;;;;9.74;100.00;101255.75;5019320;28;20224;-73
2024/02/03 05:07:27;;;;;;;9.23;6.43;;;;;;;9.76;100.00;101248.31;5005668;28;20696;-73
2024/02/03 05:09:54;;;;;;;8.63;6.60;;;;;;;9.79;100.00;101242.44;5017716;28;20209;-72
2024/02/03 05:12:21;;;;;;;9.37;6.90;;;;;;;9.78;100.00;101241.63;5003578;28;20194;-73
2024/02/03 05:14:48;;;;;;;8.30;6.10;;;;;;;9.80;100.00;101233.44;5000103;28;20201;-71
2024/02/03 05:17:14;;;;;;;10.40;6.87;;;;;;;9.82;100.00;101233.91;5001783;28;20224;-73
2024/02/03 05:19:40;;;;;;;10.03;5.73;;;;;;;9.84;100.00;101237.78;5004739;28;20184;-73
2024/02/03 05:22:07;;;;;;;9.73;6.80;;;;;;;9.87;100.00;101249.59;5003864;28;20201;-73
2024/02/03 05:24:33;;;;;;;7.57;5.67;;;;;;;9.86;100.00;101246.19;5019444;28;20211;-73
2024/02/03 05:27:00;;;;;;;9.63;6.20;;;;;;;9.85;100.00;101242.00;5001662;28;20702;-73
2024/02/03 05:29:27;;;;;;;9.27;6.20;;;;;;;9.86;100.00;101238.28;5000426;28;20705;-73
2024/02/03 05:31:54;;;;;;;8.03;6.20;;;;;;;9.88;100.00;101236.09;5007524;28;20591;-73
2024/02/03 05:34:20;;;;;;;8.57;6.63;;;;;;;9.90;100.00;101246.34;5005931;28;20571;-73
2024/02/03 05:36:46;;;;;;;9.03;6.60;;;;;;;9.89;100.00;101237.66;5002788;28;20236;-73
2024/02/03 05:39:13;;;;;;;10.03;6.67;;;;;;;9.91;100.00;101250.53;5003111;28;20207;-73
2024/02/03 05:41:39;;;;;;;8.00;5.57;;;;;;;9.91;100.00;101245.25;5003655;28;20196;-73
2024/02/03 05:44:06;;;;;;;10.90;7.17;;;;;;;9.91;100.00;101237.34;5006170;28;20213;-73
2024/02/03 05:46:34;;;;;;;7.43;5.70;;;;;;;9.94;100.00;101244.66;4997828;28;20225;-73
2024/02/03 05:49:00;;;;;;;9.80;5.63;;;;;;;9.95;100.00;101239.06;5002589;28;22344;-73
2024/02/03 05:51:26;;;;;;;9.47;6.33;;;;;;;9.95;100.00;101239.06;5006504;28;20259;-72
2024/02/03 05:53:53;;;;;;;10.10;6.40;;;;;;;9.95;100.00;101239.06;5000994;28;20203;-73
2024/02/03 05:56:19;;;;;;;9.27;5.67;;;;;;;9.95;100.00;101246.22;5004469;28;20619;-72
2024/02/03 05:58:46;;;;;;;9.00;5.57;;;;;;;9.95;100.00;101251.50;5000985;28;20212;-73
2024/02/03 06:01:12;;;;;;;9.40;5.50;;;;;;;9.93;100.00;101241.25;5005359;28;20201;-73
2024/02/03 06:03:40;;;;;;;10.53;5.73;;;;;;;9.93;100.00;101246.50;5002944;28;20201;-72
2024/02/03 06:06:07;;;;;;;8.17;5.47;;;;;;;9.89;100.00;101237.66;5006272;28;20238;-73
2024/02/03 06:08:33;;;;;;;8.70;5.90;;;;;;;9.87;100.00;101245.09;5001048;28;20211;-72
2024/02/03 06:10:59;;;;;;;8.00;5.47;;;;;;;9.85;100.00;101244.63;5002425;28;20232;-72
2024/02/03 06:13:26;;;;;;;8.50;5.03;;;;;;;9.85;100.00;101242.00;5006690;28;20228;-73
2024/02/03 06:15:53;;;;;;;9.90;5.80;;;;;;;9.86;100.00;101264.66;5003188;28;20235;-71
2024/02/03 06:18:19;;;;;;;11.73;5.00;;;;;;;9.84;100.00;101244.94;5002767;28;20232;-73
2024/02/03 06:20:48;;;;;;;8.00;5.07;;;;;;;9.82;100.00;101255.78;5003721;28;20201;-72
2024/02/03 06:23:14;;;;;;;8.07;5.27;;;;;;;9.83;100.00;101252.06;5005774;28;20258;-72
2024/02/03 06:25:40;;;;;;;7.50;5.30;;;;;;;9.83;100.00;101253.94;5002348;28;20221;-73
2024/02/03 06:28:10;;;;;;;8.57;5.13;;;;;;;9.81;100.00;101251.59;4999066;28;20579;-73
2024/02/03 06:30:36;;;;;;;8.23;5.37;;;;;;;9.82;100.00;101262.91;5004284;28;20586;-72
2024/02/03 06:33:03;;;;;;;7.20;5.10;;;;;;;9.79;100.00;101248.47;5000924;28;20234;-72
2024/02/03 06:35:30;;;;;;;8.17;5.77;;;;;;;9.81;100.00;101256.88;5002512;28;20215;-73
2024/02/03 06:37:58;;;;;;;9.13;5.17;;;;;;;9.79;100.00;101256.38;5003837;28;20214;-73
2024/02/03 06:40:24;;;;;;;7.53;4.97;;;;;;;9.79;100.00;101256.38;5003029;28;20726;-73
2024/02/03 06:42:52;;;;;;;8.03;5.20;;;;;;;9.74;100.00;101256.50;5002993;28;20579;-71
2024/02/03 06:45:19;;;;;;;7.57;4.80;;;;;;;9.75;100.00;101257.28;5002485;28;20742;-73
2024/02/03 06:47:46;;;;;;;8.13;5.07;;;;;;;9.71;100.00;101249.22;5003259;28;20225;-73
2024/02/03 06:50:12;;;;;;;8.03;4.97;;;;;;;9.71;100.00;101254.50;5006187;28;20812;-73
2024/02/03 06:52:39;;;;;;;7.70;4.60;;;;;;;9.69;100.00;101258.50;5005371;28;20203;-73
2024/02/03 06:55:08;;;;;;;8.90;4.83;;;;;;;9.67;100.00;101256.16;5001875;28;20273;-73
2024/02/03 06:57:34;;;;;;;7.80;4.47;;;;;;;9.65;100.00;101258.34;5003626;28;20228;-72
2024/02/03 07:00:00;;;;;;;7.43;4.60;;;;;;;9.63;100.00;101252.56;5003114;28;20239;-72
2024/02/03 07:02:27;;;;;;;7.70;4.87;;;;;;;9.63;100.00;101257.09;5002571;28;20197;-72
2024/02/03 07:04:53;;;;;;;8.33;4.80;;;;;;;9.58;100.00;101257.97;5031356;28;20970;-72
2024/02/03 07:07:19;;;;;;;6.87;4.53;;;;;;;9.56;100.00;101254.88;5007243;28;20303;-73
2024/02/03 07:09:46;;;;;;;7.10;4.53;;;;;;;9.56;100.00;101257.50;5006731;28;20225;-73
2024/02/03 07:12:14;;;;;;;5.93;4.13;;;;;;;9.51;100.00;101255.00;5007681;28;20205;-73
2024/02/03 07:14:40;;;;;;;7.20;4.67;;;;;;;9.52;100.00;101255.78;5008880;28;20666;-73
2024/02/03 07:17:06;;;;;;;7.03;4.77;;;;;;;9.48;100.00;101255.59;5005024;28;20227;-72
2024/02/03 07:19:33;;;;;;;5.83;4.37;;;;;;;9.49;100.00;101264.28;5005787;28;20252;-73
2024/02/03 07:21:59;;;;;;;7.03;4.80;;;;;;;9.43;100.00;101262.84;5004441;28;20276;-72
2024/02/03 07:24:26;;;;;;;6.50;4.73;;;;;;;9.40;100.00;101253.69;5007564;28;20200;-73
2024/02/03 07:26:52;;;;;;;6.40;4.40;;;;;;;9.38;100.00;101266.38;5004898;28;20217;-72
2024/02/03 07:29:20;;;;;;;7.97;4.57;;;;;;;9.35;100.00;101276.75;5005018;28;20676;-72
2024/02/03 07:31:46;;;;;;;6.40;4.70;;;;;;;9.32;100.00;101267.59;5005834;28;20196;-73
2024/02/03 07:34:12;;;;;;;7.87;4.37;;;;;;;9.30;100.00;101279.50;5004016;28;20205;-72
2024/02/03 07:36:39;;;;;;;7.07;4.77;;;;;;;9.27;100.00;101275.59;5009228;28;20226;-73
2024/02/03 07:39:05;;;;;;;6.97;4.70;;;;;;;9.24;100.00;101278.06;5005575;28;20219;-72
2024/02/03 07:41:32;;;;;;;6.00;4.60;;;;;;;9.24;100.00;101280.69;5003605;28;20207;-72
2024/02/03 07:43:58;;;;;;;6.50;4.07;;;;;;;9.21;100.00;101270.78;5008932;28;20208;-73
2024/02/03 07:46:26;;;;;;;6.40;4.40;;;;;;;9.19;100.00;101281.59;5006217;28;20614;-73
2024/02/03 07:48:52;;;;;;;6.53;4.50;;;;;;;9.15;100.00;101283.28;5023322;28;20193;-71
2024/02/03 07:51:18;;;;;;;6.77;4.27;;;;;;;9.15;100.00;101279.84;5028517;28;20202;-72
2024/02/03 07:53:45;;;;;;;8.03;4.90;;;;;;;9.14;100.00;101273.03;5026326;28;20204;-72
2024/02/03 07:56:11;;;;;;;6.83;4.73;;;;;;;9.12;100.00;101283.84;5028522;28;20224;-72
2024/02/03 07:58:37;;;;;;;7.77;4.53;;;;;;;9.10;100.00;101280.75;5041826;28;20281;-72
2024/02/03 08:01:04;;;;;;;7.07;4.70;;;;;;;9.10;100.00;101286.03;5023559;28;20209;-72
2024/02/03 08:03:32;;;;;;;6.07;4.17;;;;;;;9.08;100.00;101272.38;5028104;28;20548;-71
2024/02/03 08:06:00;;;;;;;7.17;5.10;;;;;;;9.07;100.00;101270.81;5031086;28;20310;-70
2024/02/03 08:08:26;;;;;;;6.97;4.73;;;;;;;9.09;100.00;101281.03;5027288;28;20399;-72
2024/02/03 08:10:53;;;;;;;8.53;4.67;;;;;;;9.08;100.00;101284.75;5020931;28;20236;-71
2024/02/03 08:13:19;;;;;;;7.00;4.97;;;;;;;9.09;100.00;101292.38;5019725;28;20204;-71
2024/02/03 08:15:45;;;;;;;6.57;4.90;;;;;;;9.08;100.00;101282.13;5024794;28;20282;-71
2024/02/03 08:18:12;;;;;;;7.67;4.87;;;;;;;9.10;100.00;101282.59;5027884;28;20260;-72
2024/02/03 08:20:39;;;;;;;9.00;5.77;;;;;;;9.11;100.00;101286.81;5023329;28;20223;-71
2024/02/03 08:23:06;;;;;;;7.53;4.97;;;;;;;9.10;100.00;101288.66;5016575;28;20699;-73
2024/02/03 08:25:32;;;;;;;7.00;5.00;;;;;;;9.10;100.00;101287.88;5005890;28;20335;-73
2024/02/03 08:27:58;;;;;;;8.33;4.63;;;;;;;9.11;100.00;101287.56;5008219;28;20209;-73
2024/02/03 08:30:25;;;;;;;5.60;4.47;;;;;;;9.11;100.00;101289.44;5002915;28;20221;-72
2024/02/03 08:32:51;;;;;;;6.57;4.57;;;;;;;9.10;100.00;101286.03;5008945;28;20867;-73
2024/02/03 08:35:18;;;;;;;7.23;5.20;;;;;;;9.12;100.00;101293.63;5002625;28;20201;-73
2024/02/03 08:37:45;;;;;;;8.30;4.67;;;;;;;9.11;100.00;101290.22;5006218;28;20199;-73
2024/02/03 08:40:13;;;;;;;6.33;4.57;;;;;;;9.10;100.00;101293.13;5003180;28;20201;-73
2024/02/03 08:42:40;;;;;;;8.47;5.50;;;;;;;9.12;100.00;101296.28;5005849;28;20236;-73
2024/02/03 08:45:07;;;;;;;6.43;4.37;;;;;;;9.13;100.00;101298.63;5002581;28;20204;-73
2024/02/03 08:47:33;;;;;;;6.43;4.77;;;;;;;9.14;100.00;101299.38;5004748;28;20326;-72
2024/02/03 08:50:00;;;;;;;5.90;4.17;;;;;;;9.16;100.00;101307.78;5004274;28;20218;-73
2024/02/03 08:52:26;;;;;;;6.47;4.20;;;;;;;9.17;100.00;101315.38;5008521;28;20672;-73
2024/02/03 08:54:54;;;;;;;5.30;4.03;;;;;;;9.20;100.00;101311.34;5004455;28;20265;-73
2024/02/03 08:57:21;;;;;;;5.40;3.90;;;;;;;9.22;100.00;101317.88;5005857;28;20259;-73
2024/02/03 08:59:50;;;;;;;4.40;3.30;;;;;;;9.24;100.00;101309.69;5004864;28;20247;-73
2024/02/03 09:02:16;;;;;;;5.70;3.90;;;;;;;9.25;100.00;101319.94;5008173;28;20201;-73
2024/02/03 09:04:43;;;;;;;5.90;4.13;;;;;;;9.24;100.00;101318.38;5004413;28;20215;-73
2024/02/03 09:07:09;;;;;;;5.00;3.53;;;;;;;9.26;100.00;101310.94;5004288;28;20364;-73
2024/02/03 09:09:36;;;;;;;5.43;3.73;;;;;;;9.29;100.00;101313.00;5021162;28;20200;-72
2024/02/03 09:12:04;;;;;;;4.83;3.63;;;;;;;9.30;100.00;101314.56;5005890;28;20668;-72
2024/02/03 09:14:31;;;;;;;4.90;3.60;;;;;;;9.34;100.00;101306.81;5001606;28;20200;-72
2024/02/03 09:16:57;;;;;;;6.23;4.00;;;;;;;9.36;100.00;101323.91;5006635;28;20213;-72
2024/02/03 09:19:25;;;;;;;5.43;3.90;;;;;;;9.37;100.00;101320.19;5007691;28;20204;-72
2024/02/03 09:21:51;;;;;;;4.97;3.50;;;;;;;9.40;100.00;101324.06;5007565;28;20280;-72
2024/02/03 09:24:18;;;;;;;6.77;4.60;;;;;;;9.41;100.00;101323.78;5017585;28;20227;-73
2024/02/03 09:26:44;;;;;;;8.20;6.93;;;;;;;9.41;100.00;101318.50;5006311;28;20223;-72
2024/02/03 09:29:12;;;;;;;22.37;16.10;;;;;;;9.44;100.00;101315.28;4999357;28;20204;-73
2024/02/03 09:31:38;;;;;;;10.60;7.93;;;;;;;9.47;100.00;101324.44;5001547;28;20223;-72
2024/02/03 09:34:05;;;;;;;5.07;3.30;;;;;;;9.47;100.00;101327.09;5005181;28;20212;-73
2024/02/03 09:36:32;;;;;;;3.73;3.07;;;;;;;9.51;100.00;101322.75;4977526;28;20224;-73
2024/02/03 09:38:59;;;;;;;7.30;5.50;;;;;;;9.52;100.00;101329.59;5028425;28;20201;-72
2024/02/03 09:41:26;;;;;;;6.40;4.73;;;;;;;9.53;100.00;101329.28;5002135;28;20204;-73
2024/02/03 09:43:53;;;;;;;5.50;3.50;;;;;;;9.55;100.00;101344.81;5006200;28;20201;-73
2024/02/03 09:46:21;;;;;;;5.90;4.00;;;;;;;9.57;100.00;101340.03;5019758;28;20684;-72
2024/02/03 09:48:48;;;;;;;3.67;3.30;;;;;;;9.60;100.00;101329.66;5003833;28;20211;-73
2024/02/03 09:51:14;;;;;;;2.47;2.10;;;;;;;9.61;100.00;101335.69;5004833;28;20299;-73
2024/02/03 09:53:43;;;;;;;2.87;2.40;;;;;;;9.62;100.00;101340.69;5004205;28;20205;-73
2024/02/03 09:56:10;;;;;;;2.50;1.90;;;;;;;9.64;100.00;101345.66;5001215;28;20230;-73
2024/02/03 09:58:37;;;;;;;2.70;2.20;;;;;;;9.68;100.00;101338.72;5018063;28;20723;-72
2024/02/03 10:01:03;;;;;;;6.70;4.87;;;;;;;9.71;100.00;101346.78;5007852;28;20200;-73
2024/02/03 10:03:32;;;;;;;5.43;4.13;;;;;;;9.76;100.00;101345.88;5004620;28;20198;-73
2024/02/03 10:06:00;;;;;;;3.80;2.50;;;;;;;9.78;100.00;101344.50;5000243;28;20645;-72
2024/02/03 10:08:27;;;;;;;2.43;2.20;;;;;;;9.82;100.00;101339.41;5003988;28;20201;-74
2024/02/03 10:10:54;;;;;;;3.80;2.37;;;;;;;9.85;100.00;101342.25;5003055;28;20222;-72
2024/02/03 10:13:20;;;;;;;2.40;2.13;;;;;;;9.91;100.00;101338.38;5005087;28;20220;-73
2024/02/03 10:15:59;;;;;;;1.77;1.50;;;;;;;9.95;100.00;101334.03;5003861;28;20742;-73
2024/02/03 10:18:25;;;;;;;1.77;1.63;;;;;;;9.98;100.00;101327.38;5003828;28;20201;-71
2024/02/03 10:20:53;;;;;;;2.47;2.20;;;;;;;10.03;100.00;101325.41;5002993;28;20200;-72
2024/02/03 10:23:19;;;;;;;2.80;1.80;;;;;;;10.06;100.00;101326.69;5000319;28;20203;-73
2024/02/03 10:25:46;;;;;;;2.60;2.20;;;;;;;10.07;100.00;101336.94;5003921;28;20222;-73
2024/02/03 10:28:13;;;;;;;1.87;1.53;;;;;;;10.06;100.00;101338.03;5005080;28;20194;-73
2024/02/03 10:30:39;;;;;;;1.60;1.50;;;;;;;10.06;100.00;101339.88;5003015;28;20227;-73
2024/02/03 10:33:06;;;;;;;2.53;1.90;;;;;;;10.04;100.00;101329.63;5006293;28;20212;-72
2024/02/03 10:35:34;;;;;;;2.40;1.67;;;;;;;10.04;100.00;101337.53;5000375;28;20216;-73
2024/02/03 10:38:02;;;;;;;2.23;1.93;;;;;;;10.06;100.00;101331.97;5018484;28;20693;-73
2024/02/03 10:40:31;;;;;;;4.63;2.37;;;;;;;10.04;100.00;101329.63;5008089;28;20201;-73
2024/02/03 10:42:58;;;;;;;2.30;1.70;;;;;;;10.07;100.00;101329.03;5001941;28;20220;-73
2024/02/03 10:45:26;;;;;;;2.50;2.30;;;;;;;10.10;100.00;101344.25;5016097;28;20725;-73
2024/02/03 10:47:55;;;;;;;4.90;3.50;;;;;;;10.12;100.00;101346.59;5008853;28;20196;-73
2024/02/03 10:50:23;;;;;;;2.27;2.00;;;;;;;10.15;100.00;101340.72;5006084;28;20277;-73
2024/02/03 10:52:52;;;;;;;1.53;1.40;;;;;;;10.15;100.00;101323.00;5005686;28;20208;-73
2024/02/03 10:55:22;;;;;;;2.00;1.50;;;;;;;10.19;100.00;101308.13;5006679;28;20205;-73
2024/02/03 10:57:50;;;;;;;2.33;1.67;;;;;;;10.25;100.00;101327.25;5007605;28;20209;-73
2024/02/03 11:00:18;;;;;;;1.90;1.80;;;;;;;10.28;100.00;101343.25;5004701;28;20210;-73
2024/02/03 11:02:51;;;;;;;2.10;1.73;;;;;;;10.31;100.00;101337.34;5007441;28;20251;-73
2024/02/03 11:05:17;;;;;;;1.77;1.67;;;;;;;10.30;100.00;101335.78;5008550;28;20200;-73
2024/02/03 11:07:45;;;;;;;1.70;1.60;;;;;;;10.29;100.00;101330.81;5005781;28;20202;-72
2024/02/03 11:10:14;;;;;;;1.80;1.70;;;;;;;10.27;100.00;101333.00;5003999;28;20213;-73
2024/02/03 11:12:42;;;;;;;2.07;1.90;;;;;;;10.23;100.00;101334.69;5009823;28;20197;-72
2024/02/03 11:15:10;;;;;;;1.77;1.60;;;;;;;10.19;100.00;101336.38;5005882;28;20216;-73
2024/02/03 11:17:37;;;;;;;1.53;1.43;;;;;;;10.19;100.00;101323.19;5004896;28;20233;-72
2024/02/03 11:20:06;;;;;;;1.63;1.53;;;;;;;10.17;100.00;101317.41;5004896;28;20205;-73
2024/02/03 11:22:32;;;;;;;2.73;2.23;;;;;;;10.15;100.00;101316.97;5008720;28;20191;-72